createdAt,value
2018-07-30T00:02:51.808Z,20.30
2018-07-30T00:05:56.326Z,20.30
2018-07-30T00:09:01.067Z,20.20
2018-07-30T00:12:06.078Z,20.20
2018-07-30T00:15:10.386Z,20.20
2018-07-30T00:18:15.077Z,20.10
2018-07-30T00:21:19.494Z,20.00
2018-07-30T00:24:23.995Z,19.90
2018-07-30T00:27:28.615Z,19.80
2018-07-30T00:30:33.268Z,19.80
2018-07-30T00:33:37.838Z,19.70
2018-07-30T00:36:42.180Z,19.60
2018-07-30T00:39:46.653Z,19.50
2018-07-30T00:42:51.082Z,19.60
2018-07-30T00:45:55.525Z,19.50
2018-07-30T00:49:00.214Z,19.30
2018-07-30T00:52:04.736Z,19.10
2018-07-30T00:55:09.087Z,19.00
2018-07-30T00:58:14.855Z,19.00
2018-07-30T01:01:19.525Z,19.10
2018-07-30T01:04:23.835Z,19.20
2018-07-30T01:07:28.369Z,19.30
2018-07-30T01:10:32.893Z,19.20
2018-07-30T01:13:37.440Z,19.10
2018-07-30T01:16:42.861Z,19.10
2018-07-30T01:19:47.175Z,19.00
2018-07-30T01:22:52.081Z,19.00
2018-07-30T01:25:56.489Z,19.00
2018-07-30T01:29:01.474Z,19.00
2018-07-30T01:32:06.512Z,18.90
2018-07-30T01:35:11.058Z,18.80
2018-07-30T01:38:15.737Z,18.90
2018-07-30T01:41:20.374Z,19.00
2018-07-30T01:44:25.325Z,18.90
2018-07-30T01:47:29.737Z,19.00
2018-07-30T01:50:34.395Z,18.80
2018-07-30T01:53:38.801Z,18.70
2018-07-30T01:56:42.988Z,18.60
2018-07-30T01:59:47.756Z,18.30
2018-07-30T02:02:52.797Z,18.40
2018-07-30T02:05:57.410Z,18.40
2018-07-30T02:09:02.584Z,18.30
2018-07-30T02:12:07.285Z,18.10
2018-07-30T02:15:15.385Z,17.90
2018-07-30T02:18:20.034Z,17.90
2018-07-30T02:21:24.902Z,17.80
2018-07-30T02:24:29.360Z,17.70
2018-07-30T02:27:34.376Z,17.80
2018-07-30T02:30:39.384Z,17.90
2018-07-30T02:33:44.069Z,17.80
2018-07-30T02:36:49.547Z,17.80
2018-07-30T02:39:54.459Z,17.80
2018-07-30T02:42:59.960Z,17.80
2018-07-30T02:46:04.894Z,17.80
2018-07-30T02:49:10.913Z,17.50
2018-07-30T02:52:15.735Z,17.80
2018-07-30T02:55:20.639Z,18.00
2018-07-30T02:58:25.589Z,17.80
2018-07-30T03:01:30.338Z,17.60
2018-07-30T03:04:35.136Z,17.60
2018-07-30T03:07:40.313Z,17.50
2018-07-30T03:10:45.433Z,17.50
2018-07-30T03:13:49.976Z,17.40
2018-07-30T03:16:55.802Z,17.40
2018-07-30T03:23:05.925Z,17.20
2018-07-30T03:26:10.847Z,17.50
2018-07-30T03:29:15.495Z,17.50
2018-07-30T03:32:19.827Z,17.50
2018-07-30T03:35:24.225Z,17.50
2018-07-30T03:38:28.821Z,17.50
2018-07-30T03:41:33.590Z,17.60
2018-07-30T03:44:38.294Z,17.50
2018-07-30T03:47:42.884Z,17.30
2018-07-30T03:50:47.970Z,17.20
2018-07-30T03:53:52.473Z,16.90
2018-07-30T03:56:57.034Z,16.90
2018-07-30T04:00:01.796Z,16.90
2018-07-30T04:03:06.231Z,17.00
2018-07-30T04:06:10.676Z,17.10
2018-07-30T04:09:15.581Z,17.40
2018-07-30T04:12:20.344Z,17.30
2018-07-30T04:15:25.474Z,17.40
2018-07-30T04:18:30.194Z,17.50
2018-07-30T04:21:35.145Z,17.40
2018-07-30T04:24:40.022Z,17.20
2018-07-30T04:27:44.625Z,17.20
2018-07-30T04:30:49.663Z,17.30
2018-07-30T04:33:54.050Z,17.40
2018-07-30T04:36:58.343Z,17.40
2018-07-30T04:40:03.035Z,17.50
2018-07-30T04:43:07.423Z,17.40
2018-07-30T04:46:12.236Z,17.50
2018-07-30T04:49:17.916Z,17.60
2018-07-30T04:52:22.429Z,17.60
2018-07-30T04:55:27.219Z,17.60
2018-07-30T04:58:31.946Z,17.70
2018-07-30T05:01:48.109Z,17.70
2018-07-30T05:04:52.844Z,17.90
2018-07-30T05:07:57.492Z,18.00
2018-07-30T05:11:01.878Z,18.10
2018-07-30T05:14:07.056Z,18.00
2018-07-30T05:17:11.544Z,18.50
2018-07-30T05:20:16.386Z,18.90
2018-07-30T05:23:20.748Z,19.10
2018-07-30T05:26:25.833Z,19.10
2018-07-30T05:29:30.794Z,19.10
2018-07-30T05:32:35.972Z,19.20
2018-07-30T05:35:40.424Z,19.20
2018-07-30T05:38:44.715Z,19.40
2018-07-30T05:41:50.584Z,19.40
2018-07-30T05:44:55.627Z,19.50
2018-07-30T05:48:00.118Z,19.50
2018-07-30T05:51:05.131Z,19.70
2018-07-30T05:54:10.709Z,19.70
2018-07-30T05:57:15.470Z,19.80
2018-07-30T06:00:20.408Z,20.10
2018-07-30T06:03:25.267Z,20.60
2018-07-30T06:06:30.526Z,21.00
2018-07-30T06:09:35.605Z,21.40
2018-07-30T06:12:40.121Z,21.70
2018-07-30T06:15:44.497Z,21.90
2018-07-30T06:18:48.639Z,22.00
2018-07-30T06:21:53.466Z,22.10
2018-07-30T06:24:58.156Z,22.10
2018-07-30T06:28:03.150Z,22.40
2018-07-30T06:31:07.876Z,22.50
2018-07-30T06:34:12.916Z,23.20
2018-07-30T06:37:17.389Z,23.30
2018-07-30T06:40:22.695Z,24.00
2018-07-30T06:43:27.369Z,24.50
2018-07-30T06:46:31.926Z,24.60
2018-07-30T06:49:36.556Z,24.90
2018-07-30T06:52:41.016Z,24.90
2018-07-30T06:55:45.940Z,24.40
2018-07-30T06:58:50.430Z,24.20
2018-07-30T07:01:54.837Z,24.90
2018-07-30T07:04:59.007Z,28.20
2018-07-30T07:08:04.548Z,30.70
2018-07-30T07:11:09.049Z,32.30
2018-07-30T07:14:13.630Z,32.00
2018-07-30T07:17:18.064Z,33.70
2018-07-30T07:20:23.060Z,33.70
2018-07-30T07:23:27.357Z,34.90
2018-07-30T07:26:31.855Z,34.70
2018-07-30T07:29:36.288Z,34.40
2018-07-30T07:32:40.812Z,35.50
2018-07-30T07:35:44.908Z,34.80
2018-07-30T07:38:49.818Z,35.80
2018-07-30T07:41:54.078Z,37.00
2018-07-30T07:44:58.439Z,35.90
2018-07-30T07:48:02.725Z,35.20
2018-07-30T07:51:06.959Z,36.30
2018-07-30T07:54:11.331Z,37.60
2018-07-30T07:57:15.449Z,38.00
2018-07-30T08:00:19.678Z,37.10
2018-07-30T08:03:24.398Z,35.50
2018-07-30T08:06:28.993Z,35.90
2018-07-30T08:09:33.211Z,36.30
2018-07-30T08:12:37.461Z,38.30
2018-07-30T08:15:41.592Z,38.90
2018-07-30T08:18:45.730Z,40.70
2018-07-30T08:21:49.934Z,39.60
2018-07-30T08:24:54.128Z,40.30
2018-07-30T08:27:58.397Z,40.00
2018-07-30T08:31:02.648Z,39.50
2018-07-30T08:34:07.809Z,38.80
2018-07-30T08:37:12.029Z,39.70
2018-07-30T08:40:16.285Z,38.50
2018-07-30T08:43:21.031Z,40.00
2018-07-30T08:46:25.351Z,40.70
2018-07-30T08:49:30.260Z,40.10
2018-07-30T08:52:34.843Z,37.70
2018-07-30T08:55:39.111Z,37.50
2018-07-30T08:58:44.008Z,37.40
2018-07-30T09:01:48.633Z,37.90
2018-07-30T09:04:52.853Z,39.20
2018-07-30T09:07:57.068Z,39.80
2018-07-30T09:11:01.506Z,38.80
2018-07-30T09:14:05.742Z,38.10
2018-07-30T09:17:10.008Z,38.30
2018-07-30T09:20:14.356Z,38.30
2018-07-30T09:23:18.740Z,38.40
2018-07-30T09:26:22.918Z,38.90
2018-07-30T09:29:27.176Z,38.30
2018-07-30T09:32:31.338Z,39.00
2018-07-30T09:35:36.193Z,39.00
2018-07-30T09:38:40.340Z,39.10
2018-07-30T09:41:44.558Z,40.00
2018-07-30T09:44:48.897Z,39.60
2018-07-30T09:47:53.213Z,38.30
2018-07-30T09:50:58.418Z,38.70
2018-07-30T09:54:02.632Z,39.60
2018-07-30T09:57:06.992Z,38.60
2018-07-30T10:00:11.287Z,39.00
2018-07-30T10:03:15.485Z,39.80
2018-07-30T10:06:20.037Z,40.30
2018-07-30T10:09:24.172Z,40.30
2018-07-30T10:12:28.310Z,40.10
2018-07-30T10:15:32.625Z,40.20
2018-07-30T10:18:36.833Z,40.00
2018-07-30T10:21:41.033Z,39.60
2018-07-30T10:24:45.668Z,38.50
2018-07-30T10:30:53.668Z,36.80
2018-07-30T10:33:57.875Z,37.00
2018-07-30T10:37:02.053Z,35.90
2018-07-30T10:40:06.597Z,35.90
2018-07-30T10:43:11.115Z,36.50
2018-07-30T10:46:15.489Z,36.50
2018-07-30T10:49:19.826Z,35.50
2018-07-30T10:52:24.354Z,35.40
2018-07-30T10:55:28.787Z,35.60
2018-07-30T10:58:33.057Z,35.70
2018-07-30T11:01:37.439Z,36.10
2018-07-30T11:04:43.228Z,37.40
2018-07-30T11:07:47.392Z,36.70
2018-07-30T11:10:51.758Z,36.80
2018-07-30T11:13:55.961Z,37.00
2018-07-30T11:17:00.838Z,38.00
2018-07-30T11:20:05.835Z,38.30
2018-07-30T11:23:10.829Z,38.40
2018-07-30T11:26:15.063Z,38.60
2018-07-30T11:29:19.484Z,38.70
2018-07-30T11:32:23.741Z,38.10
2018-07-30T11:35:28.218Z,38.00
2018-07-30T11:38:32.411Z,37.50
2018-07-30T11:41:36.562Z,37.40
2018-07-30T11:44:41.132Z,37.00
2018-07-30T11:47:45.361Z,36.10
2018-07-30T11:50:49.587Z,35.90
2018-07-30T11:53:54.077Z,35.60
2018-07-30T11:56:59.234Z,35.60
2018-07-30T12:00:03.424Z,35.90
2018-07-30T12:03:07.795Z,35.30
2018-07-30T12:06:12.351Z,35.00
2018-07-30T12:09:16.597Z,35.00
2018-07-30T12:12:20.709Z,34.60
2018-07-30T12:15:24.875Z,34.20
2018-07-30T12:18:29.218Z,34.10
2018-07-30T12:21:33.355Z,33.40
2018-07-30T12:24:37.458Z,33.30
2018-07-30T12:27:42.777Z,33.10
2018-07-30T12:30:47.532Z,33.20
2018-07-30T12:33:52.016Z,33.30
2018-07-30T12:36:56.508Z,33.20
2018-07-30T12:40:00.838Z,33.20
2018-07-30T12:43:06.104Z,33.10
2018-07-30T12:46:10.275Z,32.90
2018-07-30T12:49:14.720Z,33.00
2018-07-30T12:52:19.387Z,32.90
2018-07-30T12:55:23.510Z,33.10
2018-07-30T12:58:27.747Z,33.10
2018-07-30T13:01:32.113Z,33.20
2018-07-30T13:04:36.305Z,33.30
2018-07-30T13:07:40.783Z,33.40
2018-07-30T13:10:45.009Z,33.70
2018-07-30T13:13:49.264Z,33.90
2018-07-30T13:16:53.481Z,33.20
2018-07-30T13:19:58.128Z,33.00
2018-07-30T13:23:02.292Z,32.80
2018-07-30T13:26:07.615Z,32.70
2018-07-30T13:29:12.665Z,32.90
2018-07-30T13:32:22.624Z,32.90
2018-07-30T13:35:26.879Z,33.20
2018-07-30T13:38:31.382Z,33.30
2018-07-30T13:41:35.971Z,33.40
2018-07-30T13:44:40.559Z,33.40
2018-07-30T13:47:44.932Z,33.30
2018-07-30T13:50:50.096Z,33.20
2018-07-30T13:53:54.312Z,33.00
2018-07-30T13:56:59.039Z,33.10
2018-07-30T14:00:03.432Z,32.90
2018-07-30T14:03:07.583Z,32.90
2018-07-30T14:06:11.993Z,33.10
2018-07-30T14:09:16.186Z,33.50
2018-07-30T14:12:20.384Z,33.80
2018-07-30T14:15:24.558Z,33.90
2018-07-30T14:18:28.833Z,34.10
2018-07-30T14:21:33.300Z,34.00
2018-07-30T14:24:37.411Z,33.90
2018-07-30T14:27:41.616Z,33.80
2018-07-30T14:30:46.401Z,33.90
2018-07-30T14:33:50.618Z,33.40
2018-07-30T14:36:54.760Z,33.00
2018-07-30T14:39:59.082Z,33.00
2018-07-30T14:43:03.256Z,32.80
2018-07-30T14:46:07.424Z,32.70
2018-07-30T14:49:11.594Z,32.50
2018-07-30T14:52:15.720Z,32.40
2018-07-30T14:55:20.069Z,32.50
2018-07-30T14:58:24.354Z,32.70
2018-07-30T15:01:28.549Z,32.60
2018-07-30T15:04:32.894Z,33.00
2018-07-30T15:07:37.122Z,33.00
2018-07-30T15:10:41.617Z,32.90
2018-07-30T15:13:45.844Z,32.80
2018-07-30T15:16:50.384Z,32.70
2018-07-30T15:19:55.375Z,32.60
2018-07-30T15:22:59.496Z,32.70
2018-07-30T15:26:03.749Z,32.70
2018-07-30T15:29:07.942Z,32.70
2018-07-30T15:32:12.082Z,32.70
2018-07-30T15:35:16.306Z,32.60
2018-07-30T15:38:20.588Z,32.50
2018-07-30T15:41:24.780Z,32.40
2018-07-30T15:44:28.998Z,32.30
2018-07-30T15:47:35.345Z,32.20
2018-07-30T15:50:39.488Z,32.10
2018-07-30T15:53:44.131Z,32.10
2018-07-30T15:56:48.424Z,32.00
2018-07-30T15:59:52.672Z,32.10
2018-07-30T16:02:56.904Z,32.20
2018-07-30T16:06:01.060Z,32.10
2018-07-30T16:09:07.033Z,31.90
2018-07-30T16:12:11.208Z,31.90
2018-07-30T16:15:15.427Z,31.90
2018-07-30T16:18:19.557Z,32.10
2018-07-30T16:21:23.719Z,32.10
2018-07-30T16:24:28.082Z,32.00
2018-07-30T16:27:32.531Z,32.30
2018-07-30T16:30:36.752Z,32.50
2018-07-30T16:33:41.787Z,32.60
2018-07-30T16:36:45.971Z,32.60
2018-07-30T16:39:51.354Z,32.70
2018-07-30T16:42:55.533Z,32.60
2018-07-30T16:45:59.805Z,32.40
2018-07-30T16:49:04.063Z,32.20
2018-07-30T16:55:12.171Z,32.10
2018-07-30T16:58:17.092Z,32.00
2018-07-30T17:01:21.444Z,32.10
2018-07-30T17:04:25.790Z,32.20
2018-07-30T17:07:30.214Z,32.20
2018-07-30T17:10:34.433Z,32.10
2018-07-30T17:13:39.373Z,32.10
2018-07-30T17:16:43.766Z,32.00
2018-07-30T17:19:48.221Z,32.10
2018-07-30T17:22:52.960Z,32.20
2018-07-30T17:25:57.247Z,32.20
2018-07-30T17:29:01.481Z,32.10
2018-07-30T17:32:07.418Z,32.00
2018-07-30T17:35:12.239Z,32.00
2018-07-30T17:38:16.405Z,32.00
2018-07-30T17:41:21.027Z,31.90
2018-07-30T17:44:25.309Z,31.80
2018-07-30T17:47:29.599Z,31.70
2018-07-30T17:50:34.200Z,31.60
2018-07-30T17:53:38.584Z,31.40
2018-07-30T17:56:42.998Z,31.20
2018-07-30T18:00:02.822Z,31.00
2018-07-30T18:03:07.346Z,31.10
2018-07-30T18:06:11.594Z,31.00
2018-07-30T18:09:16.150Z,30.90
2018-07-30T18:12:20.646Z,30.90
2018-07-30T18:15:25.194Z,30.70
2018-07-30T18:18:29.455Z,30.50
2018-07-30T18:21:33.984Z,30.40
2018-07-30T18:24:38.556Z,30.20
2018-07-30T18:27:45.869Z,30.00
2018-07-30T18:30:50.088Z,29.80
2018-07-30T18:33:54.243Z,29.70
2018-07-30T18:36:58.468Z,29.70
2018-07-30T18:40:02.926Z,29.60
2018-07-30T18:43:07.273Z,29.40
2018-07-30T18:46:11.620Z,29.20
2018-07-30T18:49:16.267Z,29.10
2018-07-30T18:52:20.651Z,28.80
2018-07-30T18:55:24.876Z,28.60
2018-07-30T18:58:29.139Z,28.50
2018-07-30T19:01:33.395Z,28.40
2018-07-30T19:04:38.855Z,28.30
2018-07-30T19:07:43.324Z,28.00
2018-07-30T19:10:47.690Z,27.80
2018-07-30T19:13:52.328Z,27.70
2018-07-30T19:16:56.707Z,27.60
2018-07-30T19:20:01.041Z,27.40
2018-07-30T19:23:06.242Z,27.30
2018-07-30T19:26:10.416Z,27.20
2018-07-30T19:29:14.724Z,27.10
2018-07-30T19:32:18.861Z,26.90
2018-07-30T19:35:23.697Z,26.80
2018-07-30T19:38:28.401Z,26.60
2018-07-30T19:41:33.856Z,26.40
2018-07-30T19:44:38.639Z,26.30
2018-07-30T19:50:48.711Z,26.10
2018-07-30T19:53:53.666Z,25.80
2018-07-30T19:56:57.994Z,25.70
2018-07-30T20:00:02.544Z,25.60
2018-07-30T20:03:06.937Z,25.50
2018-07-30T20:06:11.720Z,25.30
2018-07-30T20:09:16.217Z,25.10
2018-07-30T20:12:20.927Z,24.90
2018-07-30T20:15:25.063Z,24.80
2018-07-30T20:18:29.498Z,24.80
2018-07-30T20:21:34.364Z,24.70
2018-07-30T20:24:39.214Z,24.60
2018-07-30T20:27:44.445Z,24.60
2018-07-30T20:30:48.865Z,24.50
2018-07-30T20:33:54.049Z,24.40
2018-07-30T20:36:58.381Z,24.20
2018-07-30T20:40:02.657Z,24.10
2018-07-30T20:43:07.504Z,24.10
2018-07-30T20:46:11.718Z,24.00
2018-07-30T20:49:15.976Z,24.00
2018-07-30T20:52:20.452Z,23.90
2018-07-30T20:55:24.988Z,23.80
2018-07-30T20:58:29.214Z,23.60
2018-07-30T21:01:34.088Z,23.50
2018-07-30T21:04:38.435Z,23.40
2018-07-30T21:07:42.614Z,23.40
2018-07-30T21:10:47.959Z,23.30
2018-07-30T21:13:52.148Z,23.30
2018-07-30T21:16:56.407Z,23.30
2018-07-30T21:20:00.763Z,23.20
2018-07-30T21:23:06.114Z,23.20
2018-07-30T21:26:10.352Z,23.10
2018-07-30T21:29:15.020Z,23.10
2018-07-30T21:32:19.383Z,23.00
2018-07-30T21:35:23.596Z,23.00
2018-07-30T21:38:28.654Z,22.90
2018-07-30T21:41:32.888Z,22.80
2018-07-30T21:44:38.255Z,22.70
2018-07-30T21:47:42.437Z,22.50
2018-07-30T21:50:46.988Z,22.60
2018-07-30T21:53:51.138Z,22.60
2018-07-30T21:56:55.773Z,22.50
2018-07-30T22:00:00.244Z,22.40
2018-07-30T22:03:04.732Z,22.40
2018-07-30T22:06:09.128Z,22.30
2018-07-30T22:09:14.506Z,22.20
2018-07-30T22:12:18.672Z,22.10
2018-07-30T22:15:23.367Z,22.00
2018-07-30T22:18:28.269Z,22.00
2018-07-30T22:21:33.048Z,22.00
2018-07-30T22:24:38.017Z,21.90
2018-07-30T22:27:42.402Z,21.80
2018-07-30T22:30:46.599Z,21.80
2018-07-30T22:33:51.243Z,21.80
2018-07-30T22:36:55.511Z,21.80
2018-07-30T22:43:03.853Z,21.80
2018-07-30T22:46:08.302Z,21.70
2018-07-30T22:49:12.735Z,21.70
2018-07-30T22:52:16.829Z,21.60
2018-07-30T22:55:21.020Z,21.50
2018-07-30T22:58:25.321Z,21.40
2018-07-30T23:01:29.710Z,21.20
2018-07-30T23:04:34.279Z,21.10
2018-07-30T23:07:38.821Z,21.10
2018-07-30T23:10:43.064Z,21.00
2018-07-30T23:13:47.240Z,21.00
2018-07-30T23:16:51.617Z,21.00
2018-07-30T23:19:56.697Z,20.90
2018-07-30T23:23:01.343Z,20.90
2018-07-30T23:26:05.683Z,20.90
2018-07-30T23:29:09.948Z,20.80
2018-07-30T23:32:14.056Z,20.70
2018-07-30T23:35:18.186Z,20.60
2018-07-30T23:38:22.947Z,20.60
2018-07-30T23:41:27.121Z,20.60
2018-07-30T23:44:31.559Z,20.70
2018-07-30T23:47:36.316Z,20.70
2018-07-30T23:50:42.038Z,20.60
2018-07-30T23:53:46.192Z,20.60
2018-07-30T23:56:50.709Z,20.50
2018-07-30T23:59:55.044Z,20.50
